53TE weather

Christus Santa Rosa Westover Hills Heliport
San Antonio, Texas, United States

Public forecast

Using degrees Fahrenheit for public forecast. Weather courtesy of forecast.io.

METAR (pilot weather report)

Closest report is Lackland Air Force Base, 7.8 nm (14.4 km) SE. Retrieved 2019/07/17 22:56 UTC (47 minutes ago):

KSKF 172256Z 12016G22KT 10SM SCT060 SCT250 36/21 A2992 RMK AO2A SLP123 T03600210 $

TAF (pilot weather forecast)

Closest forecast is Lackland Air Force Base, 7.8 nm (14.4 km) SE. Retrieved 2019/07/17 18:59 UTC (5 hours ago):

TAF KSKF 171800Z 1718/1900 15012G18KT 9999 SCT050 SCT250 QNH2988INS BECMG 1723/1800 13012G18KT 9999 FEW060 FEW250 QNH2990INS TEMPO 1723/1804 14015G25KT BECMG 1807/1808 15009KT 9999 BKN010 QNH2995INS BECMG 1815/1816 16010KT 9999 SCT020 QNH2984INS TX36/1721Z TN25/1811Z